createdAt,value
2022-08-04T00:01:09.302Z,17.44
2022-08-04T00:04:08.326Z,17.44
2022-08-04T00:06:51.057Z,17.37
2022-08-04T00:09:35.590Z,17.33
2022-08-04T00:12:06.849Z,17.34
2022-08-04T00:14:37.068Z,17.36
2022-08-04T00:17:07.125Z,17.39
2022-08-04T00:19:44.595Z,17.36
2022-08-04T00:22:17.676Z,17.37
2022-08-04T00:24:46.207Z,17.41
2022-08-04T00:27:15.790Z,17.38
2022-08-04T00:29:44.001Z,17.37
2022-08-04T00:32:13.356Z,17.38
2022-08-04T00:34:42.292Z,17.39
2022-08-04T00:37:10.662Z,17.32
2022-08-04T00:39:40.106Z,17.30
2022-08-04T00:42:10.762Z,17.32
2022-08-04T00:44:53.011Z,17.26
2022-08-04T00:47:40.496Z,17.23
2022-08-04T00:50:24.246Z,17.30
2022-08-04T00:52:57.953Z,17.25
2022-08-04T00:56:12.468Z,17.18
2022-08-04T00:58:55.423Z,17.06
2022-08-04T01:01:49.401Z,17.09
2022-08-04T01:04:48.924Z,17.09
2022-08-04T01:07:27.467Z,17.04
2022-08-04T01:10:02.797Z,17.00
2022-08-04T01:12:58.247Z,16.91
2022-08-04T01:15:59.857Z,16.82
2022-08-04T01:18:35.073Z,16.79
2022-08-04T01:21:12.005Z,16.71
2022-08-04T01:24:05.825Z,16.72
2022-08-04T01:26:57.968Z,16.64
2022-08-04T01:29:47.077Z,16.61
2022-08-04T01:32:20.959Z,16.63
2022-08-04T01:35:00.312Z,16.55
2022-08-04T01:38:21.525Z,16.59
2022-08-04T01:40:57.113Z,16.59
2022-08-04T01:43:27.481Z,16.51
2022-08-04T01:46:00.726Z,16.48
2022-08-04T01:48:29.470Z,16.50
2022-08-04T01:51:08.661Z,16.38
2022-08-04T01:53:39.457Z,16.35
2022-08-04T01:56:09.499Z,16.37
2022-08-04T01:58:38.766Z,16.40
2022-08-04T02:01:09.304Z,16.40
2022-08-04T02:04:22.099Z,16.37
2022-08-04T02:06:49.971Z,16.35
2022-08-04T02:09:28.013Z,16.32
2022-08-04T02:12:24.876Z,16.30
2022-08-04T02:15:10.967Z,16.23
2022-08-04T02:17:50.902Z,16.14
2022-08-04T02:20:31.607Z,16.07
2022-08-04T02:23:03.245Z,15.97
2022-08-04T02:25:39.482Z,15.93
2022-08-04T02:28:29.009Z,15.88
2022-08-04T02:30:56.575Z,15.96
2022-08-04T02:33:32.090Z,15.85
2022-08-04T02:36:03.437Z,15.81
2022-08-04T02:38:49.535Z,15.83
2022-08-04T02:41:20.159Z,15.81
2022-08-04T02:43:50.876Z,15.71
2022-08-04T02:46:21.690Z,15.64
2022-08-04T02:48:51.692Z,15.63
2022-08-04T02:51:30.257Z,15.61
2022-08-04T02:54:00.122Z,15.56
2022-08-04T02:56:30.955Z,15.63
2022-08-04T02:59:05.652Z,15.56
2022-08-04T03:01:34.645Z,15.56
2022-08-04T03:04:05.868Z,15.51
2022-08-04T03:07:25.494Z,15.48
2022-08-04T03:10:13.529Z,15.57
2022-08-04T03:13:02.531Z,15.55
2022-08-04T03:15:30.632Z,15.56
2022-08-04T03:18:29.476Z,15.56
2022-08-04T03:21:34.735Z,15.54
2022-08-04T03:24:21.019Z,15.49
2022-08-04T03:26:57.632Z,15.54
2022-08-04T03:30:06.529Z,15.49
2022-08-04T03:32:46.129Z,15.52
2022-08-04T03:35:23.330Z,15.45
2022-08-04T03:37:59.659Z,15.53
2022-08-04T03:41:00.359Z,15.68
2022-08-04T03:43:58.242Z,15.75
2022-08-04T03:47:04.685Z,15.87
2022-08-04T03:49:51.020Z,15.96
2022-08-04T03:53:11.149Z,16.05
2022-08-04T03:55:41.741Z,16.09
2022-08-04T03:58:52.752Z,16.17
2022-08-04T04:02:06.485Z,16.24
2022-08-04T04:04:51.904Z,16.42
2022-08-04T04:07:41.470Z,16.49
2022-08-04T04:10:36.944Z,16.65
2022-08-04T04:13:13.771Z,16.75
2022-08-04T04:16:00.892Z,16.79
2022-08-04T04:18:34.576Z,16.96
2022-08-04T04:21:28.423Z,17.03
2022-08-04T04:24:33.732Z,17.18
2022-08-04T04:27:18.090Z,17.28
2022-08-04T04:30:06.602Z,17.37
2022-08-04T04:32:43.173Z,17.57
2022-08-04T04:35:35.548Z,17.97
2022-08-04T04:38:34.926Z,18.03
2022-08-04T04:41:30.090Z,18.04
2022-08-04T04:44:15.914Z,18.08
2022-08-04T04:47:04.518Z,18.19
2022-08-04T04:49:44.919Z,18.28
2022-08-04T04:52:27.306Z,18.36
2022-08-04T04:55:04.355Z,18.49
2022-08-04T04:57:54.287Z,18.58
2022-08-04T05:00:26.647Z,18.74
2022-08-04T05:03:18.812Z,18.82
2022-08-04T05:06:11.201Z,18.94
2022-08-04T05:08:59.404Z,19.17
2022-08-04T05:11:29.846Z,19.21
2022-08-04T05:14:36.961Z,19.38
2022-08-04T05:17:06.212Z,19.50
2022-08-04T05:19:47.176Z,19.58
2022-08-04T05:22:36.268Z,19.72
2022-08-04T05:25:58.993Z,19.80
2022-08-04T05:28:41.013Z,19.99
2022-08-04T05:31:18.619Z,20.15
2022-08-04T05:34:00.646Z,20.22
2022-08-04T05:36:44.104Z,20.37
2022-08-04T05:39:19.431Z,20.49
2022-08-04T05:41:55.123Z,20.74
2022-08-04T05:44:25.468Z,20.85
2022-08-04T05:46:56.717Z,20.93
2022-08-04T05:49:26.931Z,21.06
2022-08-04T05:51:59.642Z,21.25
2022-08-04T05:54:30.881Z,21.36
2022-08-04T05:56:59.382Z,21.52
2022-08-04T05:59:28.008Z,21.64
2022-08-04T06:01:58.435Z,21.74
2022-08-04T06:04:35.653Z,21.92
2022-08-04T06:07:03.646Z,22.19
2022-08-04T06:09:32.264Z,22.37
2022-08-04T06:12:08.813Z,22.55
2022-08-04T06:14:45.490Z,22.66
2022-08-04T06:18:33.595Z,22.88
2022-08-04T06:20:19.715Z,22.99
2022-08-04T06:22:55.255Z,23.15
2022-08-04T06:25:33.299Z,23.26
2022-08-04T06:28:06.004Z,23.44
2022-08-04T06:30:34.425Z,23.52
2022-08-04T06:33:05.178Z,23.60
2022-08-04T06:35:34.026Z,23.80
2022-08-04T06:38:03.264Z,23.81
2022-08-04T06:40:34.251Z,23.98
2022-08-04T06:43:05.188Z,24.06
2022-08-04T06:45:37.175Z,24.24
2022-08-04T06:48:07.039Z,24.37
2022-08-04T06:51:24.795Z,24.53
2022-08-04T06:53:25.941Z,24.73
2022-08-04T06:55:56.298Z,24.82
2022-08-04T06:58:25.414Z,25.05
2022-08-04T07:00:54.975Z,25.25
2022-08-04T07:03:23.010Z,25.45
2022-08-04T07:05:52.638Z,25.60
2022-08-04T07:08:21.897Z,25.75
2022-08-04T07:10:50.723Z,25.98
2022-08-04T07:13:20.453Z,26.22
2022-08-04T07:15:49.868Z,26.57
2022-08-04T07:18:17.923Z,27.46
2022-08-04T07:20:46.857Z,28.43
2022-08-04T07:23:19.916Z,29.18
2022-08-04T07:25:59.782Z,30.26
2022-08-04T07:28:40.724Z,31.23
2022-08-04T07:31:31.870Z,31.92
2022-08-04T07:34:20.617Z,32.81
2022-08-04T07:36:55.203Z,34.02
2022-08-04T07:39:29.968Z,34.07
2022-08-04T07:42:02.240Z,34.51
2022-08-04T07:44:35.848Z,34.59
2022-08-04T07:47:06.459Z,35.34
2022-08-04T07:49:56.572Z,34.95
2022-08-04T07:52:23.749Z,36.34
2022-08-04T07:54:53.402Z,37.93
2022-08-04T07:57:40.953Z,39.85
2022-08-04T08:00:12.262Z,41.57
2022-08-04T08:02:40.866Z,42.60
2022-08-04T08:05:11.162Z,43.54
2022-08-04T08:07:50.934Z,44.21
2022-08-04T08:10:23.339Z,44.89
2022-08-04T08:12:52.893Z,45.53
2022-08-04T08:15:21.529Z,46.73
2022-08-04T08:17:59.743Z,46.60
2022-08-04T08:20:30.928Z,45.59
2022-08-04T08:23:00.883Z,44.29
2022-08-04T08:25:30.117Z,43.87
2022-08-04T08:27:57.949Z,45.09
2022-08-04T08:30:31.617Z,44.73
2022-08-04T08:33:03.765Z,44.96
2022-08-04T08:35:52.924Z,45.77
2022-08-04T08:38:48.155Z,46.07
2022-08-04T08:41:42.777Z,46.43
2022-08-04T08:44:19.076Z,46.86
2022-08-04T08:48:04.590Z,46.52
2022-08-04T08:50:50.056Z,46.66
2022-08-04T08:53:26.816Z,46.83
2022-08-04T08:56:16.187Z,47.49
2022-08-04T08:59:18.505Z,47.33
2022-08-04T09:02:06.610Z,47.48
2022-08-04T09:04:52.401Z,47.21
2022-08-04T09:07:35.871Z,47.19
2022-08-04T09:10:33.484Z,47.56
2022-08-04T09:13:05.268Z,47.94
2022-08-04T09:16:03.798Z,47.76
2022-08-04T09:18:43.318Z,47.25
2022-08-04T09:21:25.359Z,47.44
2022-08-04T09:24:36.205Z,47.55
2022-08-04T09:27:20.420Z,46.76
2022-08-04T09:30:08.189Z,46.82
2022-08-04T09:32:59.888Z,47.09
2022-08-04T09:35:52.611Z,46.94
2022-08-04T09:38:50.248Z,46.25
2022-08-04T09:41:53.428Z,46.05
2022-08-04T09:44:53.091Z,46.15
2022-08-04T09:47:51.957Z,45.51
2022-08-04T09:50:50.030Z,45.69
2022-08-04T09:53:55.050Z,45.96
2022-08-04T09:56:32.459Z,45.53
2022-08-04T09:59:25.307Z,46.02
2022-08-04T10:02:02.676Z,45.73
2022-08-04T10:04:33.603Z,45.27
2022-08-04T10:07:59.676Z,44.44
2022-08-04T10:11:03.332Z,43.55
2022-08-04T10:13:48.711Z,43.86
2022-08-04T10:16:34.946Z,44.08
2022-08-04T10:19:31.057Z,43.55
2022-08-04T10:22:29.172Z,42.94
2022-08-04T10:25:01.165Z,41.18
2022-08-04T10:27:45.947Z,39.41
2022-08-04T10:30:17.935Z,37.71
2022-08-04T10:33:02.835Z,36.27
2022-08-04T10:35:40.319Z,35.46
2022-08-04T10:38:28.159Z,34.46
2022-08-04T10:41:27.702Z,33.74
2022-08-04T10:44:43.624Z,33.27
2022-08-04T10:47:20.853Z,32.76
2022-08-04T10:49:55.863Z,32.03
2022-08-04T10:52:43.676Z,31.82
2022-08-04T10:55:20.764Z,31.57
2022-08-04T10:58:01.044Z,31.08
2022-08-04T11:00:31.759Z,31.40
2022-08-04T11:03:16.089Z,31.18
2022-08-04T11:05:49.097Z,31.06
2022-08-04T11:08:35.669Z,30.92
2022-08-04T11:11:19.790Z,31.08
2022-08-04T11:13:53.968Z,30.87
2022-08-04T11:16:47.637Z,30.81
2022-08-04T11:19:42.609Z,30.68
2022-08-04T11:22:28.471Z,30.82
2022-08-04T11:25:21.750Z,30.80
2022-08-04T11:27:49.683Z,30.67
2022-08-04T11:30:20.099Z,30.71
2022-08-04T11:33:26.330Z,30.59
2022-08-04T11:36:10.094Z,30.64
2022-08-04T11:38:59.123Z,30.69
2022-08-04T11:41:46.052Z,30.64
2022-08-04T11:44:37.106Z,30.60
2022-08-04T11:47:21.116Z,30.60
2022-08-04T11:49:58.080Z,30.54
2022-08-04T11:52:29.088Z,30.56
2022-08-04T11:54:58.464Z,30.62
2022-08-04T11:57:35.978Z,30.68
2022-08-04T12:00:12.484Z,30.69
2022-08-04T12:03:00.339Z,30.78
2022-08-04T12:05:36.728Z,30.76
2022-08-04T12:08:41.817Z,30.83
2022-08-04T12:11:45.915Z,30.89
2022-08-04T12:14:33.802Z,30.93
2022-08-04T12:17:05.066Z,30.81
2022-08-04T12:20:03.690Z,30.80
2022-08-04T12:22:41.533Z,30.86
2022-08-04T12:25:24.654Z,30.86
2022-08-04T12:27:58.298Z,30.77
2022-08-04T12:31:00.601Z,30.81
2022-08-04T12:34:05.995Z,30.70
2022-08-04T12:37:03.129Z,30.60
2022-08-04T12:39:31.911Z,30.45
2022-08-04T12:42:23.185Z,30.52
2022-08-04T12:44:56.111Z,30.52
2022-08-04T12:47:29.225Z,30.63
2022-08-04T12:50:03.566Z,30.62
2022-08-04T12:55:34.235Z,30.68
2022-08-04T12:58:11.641Z,30.67
2022-08-04T13:00:42.041Z,30.69
2022-08-04T13:03:16.745Z,30.65
2022-08-04T13:05:46.770Z,30.64
2022-08-04T13:08:15.941Z,30.57
2022-08-04T13:10:48.034Z,30.61
2022-08-04T13:13:18.586Z,30.62
2022-08-04T13:15:57.871Z,30.68
2022-08-04T13:18:30.318Z,30.58
2022-08-04T13:22:01.748Z,30.64
2022-08-04T13:24:21.107Z,30.62
2022-08-04T13:27:10.684Z,30.65
2022-08-04T13:30:00.675Z,30.68
2022-08-04T13:32:33.634Z,30.58
2022-08-04T13:35:04.611Z,30.57
2022-08-04T13:37:38.935Z,30.53
2022-08-04T13:40:12.438Z,30.37
2022-08-04T13:42:46.602Z,30.31
2022-08-04T13:45:20.133Z,30.40
2022-08-04T13:47:51.733Z,30.48
2022-08-04T13:50:29.656Z,30.50
2022-08-04T13:53:02.410Z,30.43
2022-08-04T13:55:34.371Z,30.35
2022-08-04T13:58:07.450Z,30.30
2022-08-04T14:00:42.916Z,30.34
2022-08-04T14:03:23.936Z,30.28
2022-08-04T14:06:16.107Z,30.34
2022-08-04T14:08:46.370Z,30.29
2022-08-04T14:12:10.044Z,30.27
2022-08-04T14:14:35.843Z,30.21
2022-08-04T14:17:07.995Z,30.18
2022-08-04T14:20:00.882Z,30.09
2022-08-04T14:22:28.935Z,30.20
2022-08-04T14:25:07.419Z,30.28
2022-08-04T14:27:56.805Z,30.16
2022-08-04T14:30:29.273Z,30.08
2022-08-04T14:33:59.636Z,30.05
2022-08-04T14:35:58.906Z,29.95
2022-08-04T14:39:01.960Z,29.97
2022-08-04T14:41:43.757Z,30.00
2022-08-04T14:44:11.607Z,29.88
2022-08-04T14:46:54.901Z,29.85
2022-08-04T14:49:23.530Z,29.89
2022-08-04T14:51:57.291Z,29.97
2022-08-04T14:54:33.461Z,29.79
2022-08-04T14:57:07.607Z,29.77
2022-08-04T15:00:01.680Z,29.67
2022-08-04T15:02:31.375Z,29.70
2022-08-04T15:06:00.792Z,29.65
2022-08-04T15:07:48.215Z,29.62
2022-08-04T15:10:16.633Z,29.57
2022-08-04T15:12:44.377Z,29.52
2022-08-04T15:15:35.313Z,29.65
2022-08-04T15:18:00.579Z,29.58
2022-08-04T15:20:29.013Z,29.56
2022-08-04T15:22:56.673Z,29.58
2022-08-04T15:25:25.171Z,29.43
2022-08-04T15:27:54.535Z,29.34
2022-08-04T15:30:22.716Z,29.37
2022-08-04T15:32:57.245Z,29.29
2022-08-04T15:35:35.084Z,29.28
2022-08-04T15:38:16.435Z,29.29
2022-08-04T15:41:09.414Z,29.22
2022-08-04T15:44:16.379Z,29.16
2022-08-04T15:46:51.078Z,29.14
2022-08-04T15:49:21.330Z,29.10
2022-08-04T15:52:11.932Z,29.07
2022-08-04T15:54:42.537Z,29.00
2022-08-04T15:58:18.453Z,28.91
2022-08-04T16:00:53.986Z,28.79
2022-08-04T16:03:53.049Z,28.76
2022-08-04T16:06:29.070Z,28.68
2022-08-04T16:09:02.251Z,28.56
2022-08-04T16:11:32.159Z,28.50
2022-08-04T16:14:02.895Z,28.44
2022-08-04T16:16:50.703Z,28.38
2022-08-04T16:19:53.256Z,28.39
2022-08-04T16:22:48.867Z,28.33
2022-08-04T16:25:17.906Z,28.16
2022-08-04T16:27:45.757Z,28.06
2022-08-04T16:30:15.293Z,28.02
2022-08-04T16:32:45.478Z,27.96
2022-08-04T16:35:28.742Z,27.89
2022-08-04T16:38:15.309Z,27.83
2022-08-04T16:40:46.638Z,27.79
2022-08-04T16:43:20.730Z,27.64
2022-08-04T16:45:50.094Z,27.65
2022-08-04T16:48:19.710Z,27.57
2022-08-04T16:50:55.515Z,27.39
2022-08-04T16:53:53.649Z,27.43
2022-08-04T16:56:18.864Z,27.25
2022-08-04T16:58:53.773Z,27.15
2022-08-04T17:01:32.963Z,27.11
2022-08-04T17:04:07.085Z,27.00
2022-08-04T17:06:37.600Z,26.94
2022-08-04T17:09:16.319Z,26.90
2022-08-04T17:11:45.967Z,26.76
2022-08-04T17:14:20.902Z,26.66
2022-08-04T17:16:48.587Z,26.51
2022-08-04T17:19:23.708Z,26.40
2022-08-04T17:22:06.654Z,26.30
2022-08-04T17:24:38.337Z,26.24
2022-08-04T17:28:10.934Z,26.05
2022-08-04T17:29:55.682Z,26.03
2022-08-04T17:32:24.244Z,25.90
2022-08-04T17:34:54.484Z,25.79
2022-08-04T17:40:22.579Z,25.59
2022-08-04T17:44:00.983Z,25.50
2022-08-04T17:46:28.689Z,25.43
2022-08-04T17:49:01.895Z,25.36
2022-08-04T17:52:04.478Z,25.21
2022-08-04T17:54:38.942Z,25.07
2022-08-04T17:57:21.226Z,25.00
2022-08-04T17:59:59.091Z,24.80
2022-08-04T18:02:32.954Z,24.70
2022-08-04T18:05:07.903Z,24.54
2022-08-04T18:08:35.354Z,24.40
2022-08-04T18:10:55.423Z,24.08
2022-08-04T18:13:26.148Z,23.87
2022-08-04T18:16:04.865Z,23.64
2022-08-04T18:18:33.125Z,23.42
2022-08-04T18:21:02.936Z,23.21
2022-08-04T18:23:32.039Z,23.03
2022-08-04T18:26:02.187Z,22.86
2022-08-04T18:28:33.797Z,22.73
2022-08-04T18:31:02.515Z,22.57
2022-08-04T18:33:39.558Z,22.44
2022-08-04T18:36:32.795Z,22.31
2022-08-04T18:39:12.103Z,22.16
2022-08-04T18:42:02.596Z,22.01
2022-08-04T18:44:36.304Z,21.82
2022-08-04T18:47:23.195Z,21.78
2022-08-04T18:51:00.289Z,21.62
2022-08-04T18:52:45.642Z,21.45
2022-08-04T18:55:56.208Z,21.33
2022-08-04T18:58:06.329Z,21.21
2022-08-04T19:00:36.094Z,21.06
2022-08-04T19:03:04.517Z,21.00
2022-08-04T19:08:33.326Z,20.81
2022-08-04T19:11:37.133Z,20.70
2022-08-04T19:13:54.845Z,20.57
2022-08-04T19:16:29.705Z,20.49
2022-08-04T19:19:00.435Z,20.36
2022-08-04T19:21:59.488Z,20.29
2022-08-04T19:24:31.226Z,20.17
2022-08-04T19:27:08.229Z,20.09
2022-08-04T19:29:41.339Z,20.08
2022-08-04T19:32:15.136Z,20.00
2022-08-04T19:34:47.464Z,19.94
2022-08-04T19:38:01.047Z,19.84
2022-08-04T19:40:10.159Z,19.80
2022-08-04T19:42:38.924Z,19.78
2022-08-04T19:45:09.545Z,19.71
2022-08-04T19:48:17.991Z,19.66
2022-08-04T19:50:32.396Z,19.58
2022-08-04T19:53:01.216Z,19.60
2022-08-04T19:55:38.322Z,19.60
2022-08-04T20:00:55.815Z,19.54
2022-08-04T20:04:08.869Z,19.49
2022-08-04T20:06:11.732Z,19.38
2022-08-04T20:08:48.138Z,19.30
2022-08-04T20:11:17.257Z,19.20
2022-08-04T20:13:54.793Z,19.23
2022-08-04T20:16:29.664Z,19.18
2022-08-04T20:19:03.200Z,19.09
2022-08-04T20:21:54.093Z,19.05
2022-08-04T20:24:39.202Z,19.11
2022-08-04T20:27:15.171Z,19.02
2022-08-04T20:29:49.760Z,18.94
2022-08-04T20:32:21.850Z,18.84
2022-08-04T20:34:52.620Z,18.83
2022-08-04T20:37:25.973Z,18.75
2022-08-04T20:40:13.453Z,18.68
2022-08-04T20:42:41.534Z,18.63
2022-08-04T20:45:16.466Z,18.65
2022-08-04T20:47:53.382Z,18.73
2022-08-04T20:50:29.722Z,18.69
2022-08-04T20:52:58.922Z,18.56
2022-08-04T20:55:29.390Z,18.46
2022-08-04T20:58:03.003Z,18.52
2022-08-04T21:00:31.983Z,18.51
2022-08-04T21:02:59.986Z,18.55
2022-08-04T21:05:27.866Z,18.50
2022-08-04T21:07:57.223Z,18.43
2022-08-04T21:10:26.247Z,18.37
2022-08-04T21:12:54.699Z,18.33
2022-08-04T21:18:16.716Z,18.37
2022-08-04T21:20:45.310Z,18.33
2022-08-04T21:23:16.298Z,18.33
2022-08-04T21:25:45.628Z,18.25
2022-08-04T21:28:20.471Z,18.26
2022-08-04T21:30:54.726Z,18.18
2022-08-04T21:33:43.914Z,18.16
2022-08-04T21:36:14.434Z,18.12
2022-08-04T21:38:50.896Z,18.08
2022-08-04T21:41:20.345Z,18.01
2022-08-04T21:43:55.131Z,17.98
2022-08-04T21:46:23.707Z,17.88
2022-08-04T21:48:51.549Z,17.98
2022-08-04T21:51:58.807Z,18.00
2022-08-04T21:54:15.141Z,17.90
2022-08-04T21:56:51.322Z,17.87
2022-08-04T21:59:23.858Z,17.80
2022-08-04T22:02:01.029Z,17.78
2022-08-04T22:04:29.906Z,17.84
2022-08-04T22:06:58.484Z,17.73
2022-08-04T22:09:31.741Z,17.78
2022-08-04T22:12:10.422Z,17.76
2022-08-04T22:14:39.927Z,17.73
2022-08-04T22:17:23.627Z,17.70
2022-08-04T22:19:56.252Z,17.75
2022-08-04T22:22:29.334Z,17.74
2022-08-04T22:25:12.617Z,17.73
2022-08-04T22:28:02.666Z,17.73
2022-08-04T22:30:37.476Z,17.63
2022-08-04T22:33:08.980Z,17.59
2022-08-04T22:35:49.428Z,17.57
2022-08-04T22:38:26.786Z,17.51
2022-08-04T22:41:03.169Z,17.46
2022-08-04T22:43:34.434Z,17.47
2022-08-04T22:46:06.390Z,17.42
2022-08-04T22:48:36.780Z,17.32
2022-08-04T22:51:07.052Z,17.28
2022-08-04T22:53:36.003Z,17.38
2022-08-04T22:56:09.574Z,17.37
2022-08-04T22:58:45.588Z,17.37
2022-08-04T23:01:18.314Z,17.25
2022-08-04T23:03:55.555Z,17.22
2022-08-04T23:06:28.698Z,17.19
2022-08-04T23:08:57.805Z,17.17
2022-08-04T23:11:34.722Z,17.14
2022-08-04T23:14:05.081Z,17.12
2022-08-04T23:16:40.308Z,17.16
2022-08-04T23:19:15.151Z,17.21
2022-08-04T23:21:47.654Z,17.29
2022-08-04T23:24:15.890Z,17.29
2022-08-04T23:26:46.099Z,17.33
2022-08-04T23:29:14.330Z,17.34
2022-08-04T23:31:59.434Z,17.31
2022-08-04T23:34:29.292Z,17.32
2022-08-04T23:36:59.066Z,17.35
2022-08-04T23:39:42.276Z,17.35
2022-08-04T23:42:21.252Z,17.29
2022-08-04T23:44:50.103Z,17.28
2022-08-04T23:48:18.488Z,17.27
2022-08-04T23:50:06.103Z,17.25
2022-08-04T23:52:33.853Z,17.26
2022-08-04T23:55:02.420Z,17.22
2022-08-04T23:57:31.096Z,17.25
